sensor_id;sensor_type;location;lat;lon;timestamp;pressure;altitude;pressure_sealevel;temperature;humidity
52797;BME280;38666;43.348;12.584;2023-05-02T06:53:04;94988.38;;;14.02;98.73
52797;BME280;38666;43.348;12.584;2023-05-02T06:55:30;94989.47;;;14.30;96.27
52797;BME280;38666;43.348;12.584;2023-05-02T06:57:56;94992.59;;;14.55;95.46
52797;BME280;38666;43.348;12.584;2023-05-02T07:00:21;94994.63;;;14.77;93.26
52797;BME280;38666;43.348;12.584;2023-05-02T07:02:48;94997.41;;;14.64;92.55
52797;BME280;38666;43.348;12.584;2023-05-02T13:15:19;95120.63;;;20.93;50.18
52797;BME280;38666;43.348;12.584;2023-05-02T13:17:44;95131.16;;;20.89;51.11
52797;BME280;38666;43.348;12.584;2023-05-02T13:20:10;95119.16;;;21.13;51.99
52797;BME280;38666;43.348;12.584;2023-05-02T13:22:36;95118.47;;;21.18;51.96
52797;BME280;38666;43.348;12.584;2023-05-02T13:25:05;95126.38;;;20.89;52.83
52797;BME280;38666;43.348;12.584;2023-05-02T13:27:31;95134.13;;;20.19;56.91
52797;BME280;38666;43.348;12.584;2023-05-02T13:29:59;95127.53;;;20.47;57.37
52797;BME280;38666;43.348;12.584;2023-05-02T13:32:25;95142.31;;;20.59;56.79
52797;BME280;38666;43.348;12.584;2023-05-02T13:34:51;95142.63;;;20.45;56.20
52797;BME280;38666;43.348;12.584;2023-05-02T13:37:17;95137.38;;;20.32;56.86
52797;BME280;38666;43.348;12.584;2023-05-02T13:39:42;95130.66;;;19.94;57.37
52797;BME280;38666;43.348;12.584;2023-05-02T13:42:08;95133.41;;;19.79;60.00
52797;BME280;38666;43.348;12.584;2023-05-02T13:44:33;95129.25;;;19.19;63.34
52797;BME280;38666;43.348;12.584;2023-05-02T13:46:58;95128.56;;;19.00;63.31
52797;BME280;38666;43.348;12.584;2023-05-02T13:49:24;95128.75;;;19.21;60.89
52797;BME280;38666;43.348;12.584;2023-05-02T13:51:50;95123.44;;;19.32;62.02
52797;BME280;38666;43.348;12.584;2023-05-02T13:54:15;95129.94;;;19.29;61.97
52797;BME280;38666;43.348;12.584;2023-05-02T13:56:41;95119.56;;;19.15;63.33
52797;BME280;38666;43.348;12.584;2023-05-02T13:59:07;95132.66;;;19.14;63.39
52797;BME280;38666;43.348;12.584;2023-05-02T14:01:33;95136.28;;;18.86;65.79
52797;BME280;38666;43.348;12.584;2023-05-02T14:03:58;95128.59;;;18.57;67.11
52797;BME280;38666;43.348;12.584;2023-05-02T14:06:24;95137.84;;;18.53;68.06
52797;BME280;38666;43.348;12.584;2023-05-02T14:08:49;95131.41;;;18.47;68.82
52797;BME280;38666;43.348;12.584;2023-05-02T14:11:17;95134.69;;;18.27;71.35
52797;BME280;38666;43.348;12.584;2023-05-02T14:13:43;95128.88;;;18.15;71.68
52797;BME280;38666;43.348;12.584;2023-05-02T14:16:09;95141.78;;;17.90;72.52
52797;BME280;38666;43.348;12.584;2023-05-02T14:18:34;95148.22;;;18.25;72.56
52797;BME280;38666;43.348;12.584;2023-05-02T14:20:59;95142.94;;;18.36;71.00
52797;BME280;38666;43.348;12.584;2023-05-02T14:23:25;95147.53;;;18.39;69.22
52797;BME280;38666;43.348;12.584;2023-05-02T14:25:53;95146.31;;;19.18;66.37
52797;BME280;38666;43.348;12.584;2023-05-02T14:28:18;95151.28;;;19.29;64.82
52797;BME280;38666;43.348;12.584;2023-05-02T14:30:43;95141.69;;;19.79;60.76
52797;BME280;38666;43.348;12.584;2023-05-02T14:33:09;95162.94;;;19.97;61.51
52797;BME280;38666;43.348;12.584;2023-05-02T14:35:35;95160.31;;;19.63;62.73
52797;BME280;38666;43.348;12.584;2023-05-02T14:38:00;95158.59;;;19.66;63.15
52797;BME280;38666;43.348;12.584;2023-05-02T14:40:25;95167.63;;;19.51;62.89
52797;BME280;38666;43.348;12.584;2023-05-02T14:42:51;95158.69;;;19.32;63.33
52797;BME280;38666;43.348;12.584;2023-05-02T14:45:17;95154.44;;;19.46;62.58
52797;BME280;38666;43.348;12.584;2023-05-02T14:47:42;95152.75;;;19.64;61.63
52797;BME280;38666;43.348;12.584;2023-05-02T14:50:08;95146.63;;;19.59;62.00
52797;BME280;38666;43.348;12.584;2023-05-02T14:52:34;95163.75;;;19.73;61.50
52797;BME280;38666;43.348;12.584;2023-05-02T14:55:00;95153.41;;;19.58;60.44
52797;BME280;38666;43.348;12.584;2023-05-02T14:57:25;95153.38;;;19.09;63.26
52797;BME280;38666;43.348;12.584;2023-05-02T14:59:51;95164.09;;;19.26;63.01
52797;BME280;38666;43.348;12.584;2023-05-02T15:02:16;95162.03;;;19.02;62.65
52797;BME280;38666;43.348;12.584;2023-05-02T15:04:42;95165.19;;;18.85;64.79
52797;BME280;38666;43.348;12.584;2023-05-02T15:07:07;95171.06;;;18.78;66.58
52797;BME280;38666;43.348;12.584;2023-05-02T15:09:33;95169.53;;;18.77;65.55
52797;BME280;38666;43.348;12.584;2023-05-02T15:11:58;95163.88;;;18.71;65.84
52797;BME280;38666;43.348;12.584;2023-05-02T15:14:24;95166.88;;;18.39;68.18
52797;BME280;38666;43.348;12.584;2023-05-02T15:16:49;95169.38;;;18.28;68.52
52797;BME280;38666;43.348;12.584;2023-05-02T15:19:15;95172.75;;;18.23;70.16
52797;BME280;38666;43.348;12.584;2023-05-02T15:21:40;95170.91;;;18.10;71.69
52797;BME280;38666;43.348;12.584;2023-05-02T15:24:06;95168.47;;;18.12;72.48
52797;BME280;38666;43.348;12.584;2023-05-02T15:26:31;95168.66;;;17.71;75.32
52797;BME280;38666;43.348;12.584;2023-05-02T15:28:57;95169.88;;;17.61;76.17
52797;BME280;38666;43.348;12.584;2023-05-02T15:31:23;95179.44;;;17.18;81.53
52797;BME280;38666;43.348;12.584;2023-05-02T15:33:49;95181.22;;;16.93;82.56
52797;BME280;38666;43.348;12.584;2023-05-02T15:36:15;95178.28;;;16.97;83.50
52797;BME280;38666;43.348;12.584;2023-05-02T15:38:41;95182.59;;;16.57;86.09
52797;BME280;38666;43.348;12.584;2023-05-02T15:41:08;95190.28;;;16.62;85.22
52797;BME280;38666;43.348;12.584;2023-05-02T15:43:34;95183.13;;;16.74;84.08
52797;BME280;38666;43.348;12.584;2023-05-02T15:46:00;95185.53;;;17.04;82.46
52797;BME280;38666;43.348;12.584;2023-05-02T15:48:27;95174.72;;;16.78;83.67
52797;BME280;38666;43.348;12.584;2023-05-02T15:50:53;95185.53;;;17.04;82.29
52797;BME280;38666;43.348;12.584;2023-05-02T15:53:19;95183.06;;;17.06;81.91
52797;BME280;38666;43.348;12.584;2023-05-02T15:55:47;95201.56;;;16.55;85.66
52797;BME280;38666;43.348;12.584;2023-05-02T15:58:14;95191.19;;;16.59;84.43
52797;BME280;38666;43.348;12.584;2023-05-02T16:00:41;95194.06;;;16.55;85.91
52797;BME280;38666;43.348;12.584;2023-05-02T16:03:06;95193.28;;;16.55;86.06
52797;BME280;38666;43.348;12.584;2023-05-02T16:05:33;95209.63;;;16.71;85.91
52797;BME280;38666;43.348;12.584;2023-05-02T16:07:58;95204.41;;;16.19;88.54
52797;BME280;38666;43.348;12.584;2023-05-02T16:10:24;95211.22;;;16.05;90.91
52797;BME280;38666;43.348;12.584;2023-05-02T16:12:49;95210.66;;;15.97;90.30
52797;BME280;38666;43.348;12.584;2023-05-02T16:15:15;95218.63;;;15.95;91.32
52797;BME280;38666;43.348;12.584;2023-05-02T16:17:40;95216.13;;;15.88;91.41
52797;BME280;38666;43.348;12.584;2023-05-02T16:20:07;95212.13;;;16.02;90.49
52797;BME280;38666;43.348;12.584;2023-05-02T16:22:33;95219.03;;;15.94;91.41
52797;BME280;38666;43.348;12.584;2023-05-02T16:24:59;95221.22;;;15.76;91.43
52797;BME280;38666;43.348;12.584;2023-05-02T16:27:24;95216.16;;;15.75;91.41
52797;BME280;38666;43.348;12.584;2023-05-02T16:29:50;95222.06;;;15.86;88.06
52797;BME280;38666;43.348;12.584;2023-05-02T16:32:16;95217.31;;;15.87;89.61
52797;BME280;38666;43.348;12.584;2023-05-02T16:34:41;95214.75;;;15.93;89.32
52797;BME280;38666;43.348;12.584;2023-05-02T16:37:06;95210.78;;;15.94;86.79
52797;BME280;38666;43.348;12.584;2023-05-02T16:39:33;95217.75;;;16.21;84.50
52797;BME280;38666;43.348;12.584;2023-05-02T16:41:58;95221.72;;;16.20;84.21
52797;BME280;38666;43.348;12.584;2023-05-02T16:44:24;95231.28;;;16.06;85.61
52797;BME280;38666;43.348;12.584;2023-05-02T16:46:50;95224.41;;;16.10;85.49
52797;BME280;38666;43.348;12.584;2023-05-02T16:49:16;95236.09;;;15.66;86.01
52797;BME280;38666;43.348;12.584;2023-05-02T16:51:41;95229.81;;;15.65;88.33
52797;BME280;38666;43.348;12.584;2023-05-02T16:54:07;95228.97;;;15.56;87.65
52797;BME280;38666;43.348;12.584;2023-05-02T16:56:33;95232.31;;;15.86;85.51
52797;BME280;38666;43.348;12.584;2023-05-02T16:58:58;95230.69;;;15.75;87.19
52797;BME280;38666;43.348;12.584;2023-05-02T17:01:24;95245.66;;;15.74;88.20
52797;BME280;38666;43.348;12.584;2023-05-02T17:03:49;95233.78;;;15.77;86.91
52797;BME280;38666;43.348;12.584;2023-05-02T17:06:15;95234.59;;;15.65;86.77
52797;BME280;38666;43.348;12.584;2023-05-02T17:08:40;95241.75;;;15.49;87.87
52797;BME280;38666;43.348;12.584;2023-05-02T17:11:06;95245.72;;;15.48;89.63
52797;BME280;38666;43.348;12.584;2023-05-02T17:13:32;95240.69;;;15.34;90.14
52797;BME280;38666;43.348;12.584;2023-05-02T17:15:59;95232.31;;;15.24;90.44
52797;BME280;38666;43.348;12.584;2023-05-02T17:18:25;95247.41;;;15.33;89.82
52797;BME280;38666;43.348;12.584;2023-05-02T17:20:51;95238.75;;;15.08;91.27
52797;BME280;38666;43.348;12.584;2023-05-02T17:23:17;95249.28;;;15.23;91.47
52797;BME280;38666;43.348;12.584;2023-05-02T17:25:43;95248.53;;;15.22;92.03
52797;BME280;38666;43.348;12.584;2023-05-02T17:28:08;95252.47;;;15.21;91.63
52797;BME280;38666;43.348;12.584;2023-05-02T17:30:34;95260.06;;;14.91;93.35
52797;BME280;38666;43.348;12.584;2023-05-02T17:33:00;95259.28;;;15.03;92.33
52797;BME280;38666;43.348;12.584;2023-05-02T17:35:26;95261.72;;;15.14;91.36
52797;BME280;38666;43.348;12.584;2023-05-02T17:37:51;95260.50;;;14.89;92.12
52797;BME280;38666;43.348;12.584;2023-05-02T17:40:17;95265.75;;;14.84;93.20
52797;BME280;38666;43.348;12.584;2023-05-02T17:42:42;95269.53;;;14.90;93.49
52797;BME280;38666;43.348;12.584;2023-05-02T17:45:11;95271.25;;;14.84;92.92
52797;BME280;38666;43.348;12.584;2023-05-02T17:47:37;95267.75;;;14.83;92.77
52797;BME280;38666;43.348;12.584;2023-05-02T17:50:03;95269.19;;;14.88;93.21
52797;BME280;38666;43.348;12.584;2023-05-02T17:52:30;95275.75;;;14.77;94.25
52797;BME280;38666;43.348;12.584;2023-05-02T17:54:56;95276.41;;;14.82;93.75
52797;BME280;38666;43.348;12.584;2023-05-02T17:57:21;95286.41;;;14.75;94.43
52797;BME280;38666;43.348;12.584;2023-05-02T17:59:47;95282.44;;;14.76;94.75
52797;BME280;38666;43.348;12.584;2023-05-02T18:02:14;95284.19;;;14.70;94.36
52797;BME280;38666;43.348;12.584;2023-05-02T18:04:41;95292.00;;;14.72;94.18
52797;BME280;38666;43.348;12.584;2023-05-02T18:07:07;95293.53;;;14.60;96.08
52797;BME280;38666;43.348;12.584;2023-05-02T18:09:33;95296.03;;;14.54;96.34
52797;BME280;38666;43.348;12.584;2023-05-02T18:11:58;95294.41;;;14.56;96.37
52797;BME280;38666;43.348;12.584;2023-05-02T18:14:25;95293.72;;;14.52;96.51
